Terminal Aerodrome Forecast
Issued by NWS

Home | Current Version | Previous Version | Text Only | Print | Product List | Glossary On
Versions: 1 2 3 4 5 6 7 8 9 10 11 12 13 14 15 16 17 18 19 20 21 22
105
FTUS44 KLZK 211142
TAFLIT
TAF
KLIT 211142Z 2112/2212 01009G16KT 5SM RA BR SCT007 OVC020
      TEMPO 2112/2116 2SM RA BR BKN007
     FM211600 03009G16KT 6SM RA BR OVC012
     FM220000 03008KT 5SM RA BR OVC007=

USA.gov is the U.S. government's official web portal to all federal, state and local government web resources and services.